Terminal Aerodrome Forecast
Issued by NWS Albany, NY

Home | Current Version | Previous Version | Text Only | Print | Product List | Glossary On
Versions: 1 2 3 4 5 6 7 8 9 10 11 12 13 14 15 16 17 18 19 20
000
FTUS41 KALY 240539
TAFALB
TAF
KALB 240539Z 2406/2506 VRB03KT P6SM SKC
     FM241200 18004KT P6SM SKC
     FM241700 19008KT P6SM FEW050 SCT250
     FM250000 18005KT P6SM SCT250=

USA.gov is the U.S. government's official web portal to all federal, state and local government web resources and services.